Terminal Aerodrome Forecast
Issued by NWS Cleveland, OH

Home | Current Version | Previous Version | Graphics & Text | Print | Product List | Glossary On
Versions: 1 2 3 4 5 6 7 8 9 10 11 12 13 14 15 16 17 18 19 20 21 22 23
000
FTUS41 KCLE 250200 AAA
TAFCLE
TAF AMD
KCLE 250246Z 2503/2606 15007KT P6SM FEW120 BKN200
     FM250800 19011KT P6SM FEW120 BKN250
     FM251500 20015G25KT P6SM SCT050 BKN120
     FM252000 22018G26KT P6SM VCTS BKN050CB=

USA.gov is the U.S. government's official web portal to all federal, state and local government web resources and services.